createdAt,value
2018-07-17T00:01:15.674Z,5.50
2018-07-17T00:03:43.779Z,5.47
2018-07-17T00:06:11.874Z,4.47
2018-07-17T00:08:39.929Z,4.45
2018-07-17T00:11:08.170Z,4.78
2018-07-17T00:13:36.446Z,5.60
2018-07-17T00:16:04.711Z,5.30
2018-07-17T00:18:32.948Z,4.45
2018-07-17T00:21:01.516Z,5.03
2018-07-17T00:23:30.013Z,4.92
2018-07-17T00:25:58.408Z,5.50
2018-07-17T00:28:27.030Z,5.55
2018-07-17T00:30:55.699Z,5.17
2018-07-17T00:33:24.447Z,4.65
2018-07-17T00:35:53.078Z,4.83
2018-07-17T00:38:21.192Z,4.12
2018-07-17T00:40:49.314Z,4.67
2018-07-17T00:43:17.951Z,5.37
2018-07-17T00:45:45.999Z,5.45
2018-07-17T00:48:15.120Z,5.62
2018-07-17T00:50:43.191Z,4.90
2018-07-17T00:53:11.236Z,5.40
2018-07-17T00:55:39.362Z,4.90
2018-07-17T00:58:07.578Z,5.15
2018-07-17T01:00:40.954Z,4.80
2018-07-17T01:03:14.424Z,4.50
2018-07-17T01:05:47.760Z,4.28
2018-07-17T01:08:21.302Z,5.12
2018-07-17T01:10:54.744Z,4.42
2018-07-17T01:13:35.468Z,5.03
2018-07-17T01:16:03.532Z,4.47
2018-07-17T01:18:31.585Z,4.83
2018-07-17T01:20:59.616Z,4.72
2018-07-17T01:23:27.662Z,5.28
2018-07-17T01:25:55.696Z,5.37
2018-07-17T01:28:23.756Z,4.58
2018-07-17T01:30:51.811Z,4.58
2018-07-17T01:33:19.956Z,5.42
2018-07-17T01:35:48.022Z,4.62
2018-07-17T01:38:16.048Z,5.70
2018-07-17T01:40:44.144Z,5.03
2018-07-17T01:43:12.188Z,4.93
2018-07-17T01:45:40.610Z,5.30
2018-07-17T01:48:08.708Z,5.65
2018-07-17T01:50:36.876Z,5.65
2018-07-17T01:53:05.347Z,5.12
2018-07-17T01:55:33.403Z,5.40
2018-07-17T01:58:01.445Z,5.00
2018-07-17T02:00:29.703Z,4.70
2018-07-17T02:02:57.747Z,5.00
2018-07-17T02:05:26.205Z,5.12
2018-07-17T02:07:54.265Z,5.60
2018-07-17T02:10:24.549Z,5.90
2018-07-17T02:12:52.758Z,5.70
2018-07-17T02:15:21.029Z,6.03
2018-07-17T02:17:49.069Z,6.20
2018-07-17T02:20:18.149Z,6.50
2018-07-17T02:22:46.208Z,5.25
2018-07-17T02:25:14.265Z,5.67
2018-07-17T02:27:42.340Z,5.83
2018-07-17T02:30:11.432Z,4.90
2018-07-17T02:32:39.545Z,5.10
2018-07-17T02:35:07.651Z,5.33
2018-07-17T02:37:37.115Z,5.30
2018-07-17T02:40:05.773Z,5.00
2018-07-17T02:42:33.944Z,5.93
2018-07-17T02:45:02.140Z,6.00
2018-07-17T02:47:30.343Z,5.63
2018-07-17T02:49:58.589Z,5.35
2018-07-17T02:52:27.220Z,5.40
2018-07-17T02:54:55.647Z,5.37
2018-07-17T02:57:25.588Z,5.20
2018-07-17T02:59:54.865Z,5.67
2018-07-17T03:02:23.200Z,5.37
2018-07-17T03:04:51.383Z,6.50
2018-07-17T03:07:19.508Z,6.97
2018-07-17T03:09:47.596Z,6.33
2018-07-17T03:12:15.616Z,5.20
2018-07-17T03:14:43.802Z,5.40
2018-07-17T03:17:11.966Z,5.30
2018-07-17T03:19:40.093Z,6.47
2018-07-17T03:22:09.530Z,5.77
2018-07-17T03:24:37.603Z,6.27
2018-07-17T03:27:05.753Z,5.73
2018-07-17T03:29:33.960Z,5.57
2018-07-17T03:32:02.487Z,6.13
2018-07-17T03:34:31.483Z,6.17
2018-07-17T03:36:59.702Z,7.20
2018-07-17T03:39:27.934Z,6.70
2018-07-17T03:41:56.628Z,6.37
2018-07-17T03:44:26.495Z,6.20
2018-07-17T03:46:54.950Z,6.70
2018-07-17T03:49:24.208Z,6.27
2018-07-17T03:51:54.483Z,6.40
2018-07-17T03:54:22.910Z,6.83
2018-07-17T03:56:51.165Z,6.30
2018-07-17T03:59:19.470Z,6.23
2018-07-17T04:01:47.557Z,6.40
2018-07-17T04:04:15.594Z,6.47
2018-07-17T04:06:43.711Z,6.17
2018-07-17T04:09:11.785Z,6.13
2018-07-17T04:11:39.816Z,6.77
2018-07-17T04:14:09.915Z,7.00
2018-07-17T04:16:42.570Z,6.57
2018-07-17T04:19:10.620Z,6.50
2018-07-17T04:21:38.684Z,5.87
2018-07-17T04:24:08.512Z,7.20
2018-07-17T04:26:36.579Z,7.10
2018-07-17T04:29:04.907Z,6.57
2018-07-17T04:31:33.129Z,7.13
2018-07-17T04:34:01.165Z,6.93
2018-07-17T04:36:31.516Z,6.87
2018-07-17T04:38:59.568Z,6.37
2018-07-17T04:41:27.615Z,6.03
2018-07-17T04:43:56.486Z,6.28
2018-07-17T04:46:24.707Z,6.20
2018-07-17T04:48:53.292Z,6.03
2018-07-17T04:51:21.547Z,6.15
2018-07-17T04:53:49.703Z,5.83
2018-07-17T04:56:17.892Z,5.65
2018-07-17T04:58:46.056Z,5.78
2018-07-17T05:01:14.156Z,5.55
2018-07-17T05:03:42.191Z,5.58
2018-07-17T05:06:10.237Z,5.83
2018-07-17T05:08:38.339Z,5.42
2018-07-17T05:11:06.902Z,5.15
2018-07-17T05:13:34.947Z,5.70
2018-07-17T05:16:02.984Z,5.70
2018-07-17T05:18:31.190Z,6.05
2018-07-17T05:21:00.460Z,5.12
2018-07-17T05:23:28.505Z,5.50
2018-07-17T05:25:56.612Z,5.65
2018-07-17T05:28:26.512Z,5.17
2018-07-17T05:30:54.661Z,5.50
2018-07-17T05:33:23.583Z,5.10
2018-07-17T05:35:51.723Z,5.55
2018-07-17T05:38:19.773Z,5.58
2018-07-17T05:40:48.077Z,5.25
2018-07-17T05:43:16.126Z,4.60
2018-07-17T05:45:46.475Z,5.00
2018-07-17T05:48:14.551Z,5.00
2018-07-17T05:50:42.622Z,6.37
2018-07-17T05:53:10.649Z,6.35
2018-07-17T05:55:38.676Z,5.37
2018-07-17T05:58:06.944Z,6.03
2018-07-17T06:00:35.020Z,5.58
2018-07-17T06:03:03.077Z,5.90
2018-07-17T06:05:31.140Z,5.97
2018-07-17T06:07:59.221Z,5.83
2018-07-17T06:10:27.362Z,5.20
2018-07-17T06:12:55.327Z,5.40
2018-07-17T06:15:23.409Z,5.50
2018-07-17T06:17:51.501Z,5.67
2018-07-17T06:20:19.549Z,5.92
2018-07-17T06:22:47.619Z,5.15
2018-07-17T06:25:15.656Z,4.92
2018-07-17T06:27:43.708Z,5.00
2018-07-17T06:30:12.590Z,5.10
2018-07-17T06:32:40.732Z,4.72
2018-07-17T06:35:08.795Z,4.67
2018-07-17T06:37:37.069Z,4.70
2018-07-17T06:40:05.140Z,5.10
2018-07-17T06:42:33.226Z,6.22
2018-07-17T06:45:06.908Z,5.95
2018-07-17T06:47:35.003Z,5.90
2018-07-17T06:50:03.361Z,6.00
2018-07-17T06:52:31.455Z,5.30
2018-07-17T06:55:00.055Z,6.17
2018-07-17T06:57:28.141Z,5.58
2018-07-17T06:59:56.216Z,5.40
2018-07-17T07:02:24.296Z,5.60
2018-07-17T07:04:52.368Z,5.65
2018-07-17T07:07:22.285Z,5.40
2018-07-17T07:09:50.319Z,5.15
2018-07-17T07:12:18.379Z,6.28
2018-07-17T07:14:46.445Z,5.70
2018-07-17T07:17:14.515Z,5.28
2018-07-17T07:19:42.624Z,5.70
2018-07-17T07:22:10.682Z,5.80
2018-07-17T07:24:38.759Z,5.10
2018-07-17T07:27:07.889Z,5.10
2018-07-17T07:29:36.108Z,4.62
2018-07-17T07:32:04.444Z,5.35
2018-07-17T07:34:32.660Z,4.35
2018-07-17T07:37:00.689Z,4.80
2018-07-17T07:39:28.711Z,4.53
2018-07-17T07:41:56.771Z,4.28
2018-07-17T07:44:24.883Z,4.47
2018-07-17T07:46:52.969Z,4.03
2018-07-17T07:49:21.098Z,4.17
2018-07-17T07:51:49.303Z,4.35
2018-07-17T07:54:17.338Z,3.98
2018-07-17T07:56:45.503Z,3.72
2018-07-17T07:59:13.543Z,3.45
2018-07-17T08:01:42.066Z,3.52
2018-07-17T08:04:10.353Z,3.92
2018-07-17T08:06:38.411Z,3.33
2018-07-17T08:09:08.167Z,3.33
2018-07-17T08:11:36.318Z,3.08
2018-07-17T08:14:04.480Z,3.25
2018-07-17T08:16:32.732Z,3.47
2018-07-17T08:19:00.980Z,3.20
2018-07-17T08:21:29.167Z,3.83
2018-07-17T08:23:57.337Z,3.33
2018-07-17T08:26:25.907Z,3.00
2018-07-17T08:28:54.169Z,3.45
2018-07-17T08:31:22.249Z,3.22
2018-07-17T08:33:50.347Z,3.30
2018-07-17T08:36:18.431Z,3.20
2018-07-17T08:38:46.535Z,3.08
2018-07-17T08:41:14.609Z,3.30
2018-07-17T08:43:42.712Z,2.90
2018-07-17T08:46:10.788Z,3.17
2018-07-17T08:48:38.864Z,3.20
2018-07-17T08:51:07.006Z,3.80
2018-07-17T08:53:35.061Z,3.42
2018-07-17T08:56:03.300Z,3.33
2018-07-17T08:58:31.377Z,2.95
2018-07-17T09:00:59.435Z,3.27
2018-07-17T09:03:27.493Z,3.00
2018-07-17T09:05:55.567Z,3.00
2018-07-17T09:08:23.656Z,3.33
2018-07-17T09:10:51.699Z,3.20
2018-07-17T09:13:19.723Z,2.80
2018-07-17T09:15:47.779Z,2.90
2018-07-17T09:18:15.855Z,3.30
2018-07-17T09:20:43.899Z,3.45
2018-07-17T09:23:11.967Z,3.10
2018-07-17T09:25:40.010Z,3.30
2018-07-17T09:28:08.113Z,3.60
2018-07-17T09:30:41.822Z,3.27
2018-07-17T09:33:09.887Z,2.90
2018-07-17T09:35:37.967Z,3.17
2018-07-17T09:38:06.625Z,3.70
2018-07-17T09:40:34.640Z,3.62
2018-07-17T09:43:03.001Z,3.87
2018-07-17T09:45:31.375Z,3.40
2018-07-17T09:47:59.464Z,3.25
2018-07-17T09:50:27.602Z,3.30
2018-07-17T09:52:55.696Z,4.65
2018-07-17T09:55:23.752Z,4.28
2018-07-17T09:57:51.805Z,3.92
2018-07-17T10:00:25.387Z,4.15
2018-07-17T10:02:53.463Z,3.70
2018-07-17T10:05:21.532Z,4.55
2018-07-17T10:07:49.610Z,3.83
2018-07-17T10:10:17.790Z,3.75
2018-07-17T10:12:45.877Z,4.42
2018-07-17T10:15:14.365Z,3.85
2018-07-17T10:17:42.425Z,3.95
2018-07-17T10:20:10.985Z,3.80
2018-07-17T10:22:40.072Z,4.40
2018-07-17T10:25:11.738Z,4.10
2018-07-17T10:27:39.904Z,4.00
2018-07-17T10:30:08.014Z,4.20
2018-07-17T10:32:36.502Z,4.12
2018-07-17T10:35:04.644Z,4.10
2018-07-17T10:37:32.727Z,4.00
2018-07-17T10:40:01.796Z,4.75
2018-07-17T10:42:29.821Z,4.33
2018-07-17T10:44:57.897Z,4.00
2018-07-17T10:47:26.017Z,3.85
2018-07-17T10:49:53.983Z,3.70
2018-07-17T10:52:22.090Z,3.98
2018-07-17T10:54:50.300Z,4.12
2018-07-17T10:57:18.331Z,3.50
2018-07-17T10:59:46.420Z,3.58
2018-07-17T11:02:15.485Z,3.35
2018-07-17T11:04:43.540Z,3.35
2018-07-17T11:07:11.644Z,3.25
2018-07-17T11:09:39.652Z,3.70
2018-07-17T11:12:07.837Z,3.87
2018-07-17T11:14:35.991Z,3.25
2018-07-17T11:17:04.015Z,3.25
2018-07-17T11:19:32.207Z,3.17
2018-07-17T11:22:00.504Z,3.37
2018-07-17T11:24:28.880Z,4.20
2018-07-17T11:26:57.091Z,3.70
2018-07-17T11:29:25.651Z,3.52
2018-07-17T11:31:53.887Z,3.60
2018-07-17T11:34:21.921Z,3.45
2018-07-17T11:36:49.987Z,3.70
2018-07-17T11:39:18.880Z,4.03
2018-07-17T11:41:46.928Z,3.58
2018-07-17T11:44:15.012Z,3.60
2018-07-17T11:46:43.354Z,3.65
2018-07-17T11:49:11.383Z,3.30
2018-07-17T11:51:39.551Z,3.33
2018-07-17T11:54:07.615Z,3.58
2018-07-17T11:56:35.668Z,3.30
2018-07-17T11:59:03.770Z,3.50
2018-07-17T12:01:31.776Z,3.65
2018-07-17T12:03:59.822Z,3.47
2018-07-17T12:06:27.924Z,3.60
2018-07-17T12:08:55.964Z,3.55
2018-07-17T12:11:24.020Z,3.20
2018-07-17T12:13:52.084Z,3.83
2018-07-17T12:16:20.183Z,3.12
2018-07-17T12:18:48.302Z,3.10
2018-07-17T12:21:16.343Z,3.70
2018-07-17T12:23:44.415Z,3.20
2018-07-17T12:26:12.483Z,3.72
2018-07-17T12:28:40.645Z,3.90
2018-07-17T12:31:08.739Z,3.83
2018-07-17T12:33:36.811Z,3.45
2018-07-17T12:36:06.048Z,3.52
2018-07-17T12:38:34.116Z,3.47
2018-07-17T12:41:02.283Z,3.55
2018-07-17T12:43:30.360Z,3.80
2018-07-17T12:45:58.429Z,3.87
2018-07-17T12:48:26.487Z,4.97
2018-07-17T12:50:54.543Z,3.95
2018-07-17T12:53:22.618Z,3.70
2018-07-17T12:55:50.641Z,3.70
2018-07-17T12:58:18.672Z,3.65
2018-07-17T13:00:46.726Z,4.12
2018-07-17T13:03:14.772Z,3.50
2018-07-17T13:05:42.833Z,4.20
2018-07-17T13:08:11.287Z,4.20
2018-07-17T13:10:39.395Z,3.70
2018-07-17T13:13:07.748Z,3.85
2018-07-17T13:15:35.884Z,4.20
2018-07-17T13:18:04.117Z,4.30
2018-07-17T13:20:32.543Z,4.12
2018-07-17T13:23:01.071Z,4.50
2018-07-17T13:25:30.160Z,4.05
2018-07-17T13:27:58.272Z,4.60
2018-07-17T13:30:26.312Z,4.70
2018-07-17T13:32:54.585Z,4.58
2018-07-17T13:35:22.656Z,5.10
2018-07-17T13:37:50.708Z,4.33
2018-07-17T13:40:18.760Z,4.60
2018-07-17T13:42:46.840Z,4.25
2018-07-17T13:45:14.895Z,4.25
2018-07-17T13:47:42.940Z,4.17
2018-07-17T13:50:11.075Z,4.75
2018-07-17T13:52:39.136Z,5.00
2018-07-17T13:55:07.173Z,4.50
2018-07-17T13:57:35.263Z,4.58
2018-07-17T14:00:03.360Z,4.53
2018-07-17T14:02:31.469Z,4.12
2018-07-17T14:04:59.532Z,4.17
2018-07-17T14:07:27.616Z,5.50
2018-07-17T14:09:55.799Z,4.55
2018-07-17T14:12:24.037Z,4.25
2018-07-17T14:14:52.016Z,4.15
2018-07-17T14:17:20.121Z,3.50
2018-07-17T14:19:48.273Z,3.58
2018-07-17T14:22:16.405Z,3.85
2018-07-17T14:24:44.469Z,3.80
2018-07-17T14:27:12.520Z,3.92
2018-07-17T14:29:41.458Z,4.40
2018-07-17T14:32:09.488Z,4.22
2018-07-17T14:34:37.564Z,4.00
2018-07-17T14:37:05.707Z,4.10
2018-07-17T14:39:33.927Z,3.60
2018-07-17T14:42:02.087Z,3.98
2018-07-17T14:44:30.297Z,3.50
2018-07-17T14:46:58.696Z,3.22
2018-07-17T14:49:26.983Z,3.72
2018-07-17T14:51:55.621Z,3.37
2018-07-17T14:54:23.831Z,3.52
2018-07-17T14:56:51.998Z,3.40
2018-07-17T14:59:20.275Z,3.90
2018-07-17T15:01:48.400Z,3.70
2018-07-17T15:04:16.534Z,3.58
2018-07-17T15:06:44.580Z,3.80
2018-07-17T15:09:12.635Z,4.00
2018-07-17T15:11:40.716Z,3.83
2018-07-17T15:14:08.756Z,3.87
2018-07-17T15:16:36.852Z,3.77
2018-07-17T15:19:05.013Z,4.20
2018-07-17T15:21:33.093Z,4.00
2018-07-17T15:24:01.147Z,3.90
2018-07-17T15:26:29.183Z,3.62
2018-07-17T15:28:57.266Z,4.28
2018-07-17T15:31:25.287Z,4.33
2018-07-17T15:33:53.468Z,4.35
2018-07-17T15:36:21.623Z,4.00
2018-07-17T15:38:49.801Z,4.60
2018-07-17T15:41:18.016Z,4.75
2018-07-17T15:43:46.151Z,4.30
2018-07-17T15:46:14.232Z,3.95
2018-07-17T15:48:42.351Z,4.30
2018-07-17T15:51:10.386Z,4.60
2018-07-17T15:53:38.863Z,4.37
2018-07-17T15:56:07.100Z,4.37
2018-07-17T15:58:35.513Z,4.10
2018-07-17T16:01:03.710Z,4.55
2018-07-17T16:03:32.124Z,4.72
2018-07-17T16:06:00.315Z,4.30
2018-07-17T16:08:28.740Z,16.75
2018-07-17T16:10:57.741Z,12.82
2018-07-17T16:13:26.357Z,4.55
2018-07-17T16:15:55.219Z,4.53
2018-07-17T16:18:23.401Z,6.35
2018-07-17T16:20:51.748Z,15.75
2018-07-17T16:23:19.954Z,12.13
2018-07-17T16:25:48.879Z,4.12
2018-07-17T16:28:16.999Z,3.92
2018-07-17T16:30:45.137Z,3.90
2018-07-17T16:33:13.180Z,2.75
2018-07-17T16:35:41.372Z,3.70
2018-07-17T16:38:09.687Z,5.67
2018-07-17T16:40:37.862Z,4.50
2018-07-17T16:43:07.130Z,4.60
2018-07-17T16:45:35.730Z,3.62
2018-07-17T16:48:04.333Z,4.47
2018-07-17T16:50:32.821Z,3.70
2018-07-17T16:53:02.192Z,4.05
2018-07-17T16:55:30.523Z,3.67
2018-07-17T16:57:59.163Z,4.25
2018-07-17T17:00:27.592Z,3.90
2018-07-17T17:02:56.179Z,3.33
2018-07-17T17:05:25.654Z,3.87
2018-07-17T17:07:54.429Z,3.85
2018-07-17T17:10:22.583Z,3.65
2018-07-17T17:12:50.839Z,3.40
2018-07-17T17:15:19.207Z,4.03
2018-07-17T17:17:47.293Z,3.40
2018-07-17T17:20:15.420Z,3.35
2018-07-17T17:22:43.444Z,3.35
2018-07-17T17:25:11.488Z,3.50
2018-07-17T17:27:39.548Z,3.10
2018-07-17T17:30:07.583Z,3.12
2018-07-17T17:32:36.393Z,3.40
2018-07-17T17:35:04.446Z,3.40
2018-07-17T17:37:32.525Z,3.12
2018-07-17T17:40:00.571Z,3.42
2018-07-17T17:42:28.635Z,3.95
2018-07-17T17:44:56.867Z,3.47
2018-07-17T17:47:24.921Z,3.27
2018-07-17T17:49:53.378Z,3.72
2018-07-17T17:52:21.404Z,3.12
2018-07-17T17:54:49.905Z,3.27
2018-07-17T17:57:17.956Z,3.37
2018-07-17T17:59:46.008Z,3.35
2018-07-17T18:02:14.790Z,3.58
2018-07-17T18:04:42.859Z,3.50
2018-07-17T18:07:10.960Z,3.17
2018-07-17T18:09:39.923Z,3.95
2018-07-17T18:12:08.323Z,3.22
2018-07-17T18:14:36.867Z,3.20
2018-07-17T18:17:04.915Z,3.05
2018-07-17T18:19:32.962Z,3.35
2018-07-17T18:22:01.059Z,3.90
2018-07-17T18:24:29.100Z,3.30
2018-07-17T18:26:57.732Z,3.83
2018-07-17T18:29:25.732Z,3.27
2018-07-17T18:31:53.760Z,3.58
2018-07-17T18:34:21.902Z,3.52
2018-07-17T18:36:49.891Z,3.77
2018-07-17T18:39:17.982Z,3.80
2018-07-17T18:41:46.049Z,4.00
2018-07-17T18:44:14.119Z,5.78
2018-07-17T18:46:42.176Z,9.18
2018-07-17T18:49:10.395Z,7.42
2018-07-17T18:51:38.447Z,3.92
2018-07-17T18:54:06.768Z,3.83
2018-07-17T18:56:34.960Z,4.60
2018-07-17T18:59:03.166Z,3.67
2018-07-17T19:01:31.279Z,3.95
2018-07-17T19:04:01.099Z,4.25
2018-07-17T19:06:29.251Z,4.15
2018-07-17T19:08:57.324Z,4.20
2018-07-17T19:11:25.437Z,4.40
2018-07-17T19:13:55.453Z,4.03
2018-07-17T19:16:23.511Z,4.35
2018-07-17T19:18:51.531Z,4.45
2018-07-17T19:21:19.787Z,6.80
2018-07-17T19:23:48.556Z,4.67
2018-07-17T19:26:16.655Z,7.87
2018-07-17T19:28:44.780Z,4.30
2018-07-17T19:31:12.799Z,4.70
2018-07-17T19:33:40.863Z,4.75
2018-07-17T19:36:08.903Z,4.55
2018-07-17T19:38:37.307Z,4.45
2018-07-17T19:41:05.616Z,4.92
2018-07-17T19:43:35.274Z,5.28
2018-07-17T19:46:03.700Z,5.10
2018-07-17T19:48:32.343Z,5.00
2018-07-17T19:51:00.752Z,5.20
2018-07-17T19:53:29.432Z,4.83
2018-07-17T19:55:57.718Z,4.85
2018-07-17T19:58:26.465Z,5.45
2018-07-17T20:00:56.090Z,5.47
2018-07-17T20:03:24.216Z,5.72
2018-07-17T20:05:52.286Z,4.83
2018-07-17T20:08:21.914Z,4.97
2018-07-17T20:10:49.925Z,4.85
2018-07-17T20:13:18.164Z,6.58
2018-07-17T20:15:51.577Z,5.97
2018-07-17T20:18:19.762Z,5.67
2018-07-17T20:20:48.267Z,5.08
2018-07-17T20:23:20.759Z,4.85
2018-07-17T20:25:48.933Z,5.33
2018-07-17T20:28:17.568Z,5.30
2018-07-17T20:30:45.818Z,5.42
2018-07-17T20:33:14.151Z,5.60
2018-07-17T20:35:43.697Z,5.15
2018-07-17T20:38:11.747Z,6.03
2018-07-17T20:40:39.944Z,5.25
2018-07-17T20:43:07.971Z,4.90
2018-07-17T20:45:36.282Z,5.28
2018-07-17T20:48:05.448Z,6.03
2018-07-17T20:50:34.732Z,6.83
2018-07-17T20:53:03.253Z,6.42
2018-07-17T20:55:31.567Z,5.90
2018-07-17T20:57:59.905Z,6.37
2018-07-17T21:00:28.592Z,5.75
2018-07-17T21:02:57.108Z,5.35
2018-07-17T21:05:26.077Z,6.10
2018-07-17T21:07:54.934Z,5.58
2018-07-17T21:10:24.081Z,6.97
2018-07-17T21:12:52.604Z,6.30
2018-07-17T21:15:20.691Z,5.92
2018-07-17T21:17:48.736Z,6.58
2018-07-17T21:20:16.782Z,6.12
2018-07-17T21:22:44.838Z,6.70
2018-07-17T21:25:13.139Z,5.90
2018-07-17T21:27:41.164Z,6.15
2018-07-17T21:30:09.194Z,6.30
2018-07-17T21:32:37.259Z,6.55
2018-07-17T21:35:06.942Z,6.87
2018-07-17T21:37:35.564Z,7.42
2018-07-17T21:40:04.264Z,6.00
2018-07-17T21:42:32.835Z,6.03
2018-07-17T21:45:01.444Z,5.67
2018-07-17T21:47:31.045Z,6.97
2018-07-17T21:50:00.921Z,6.25
2018-07-17T21:52:29.953Z,6.45
2018-07-17T21:54:59.352Z,5.28
2018-07-17T21:57:28.996Z,5.12
2018-07-17T21:59:58.062Z,6.22
2018-07-17T22:02:28.524Z,6.42
2018-07-17T22:04:57.508Z,7.33
2018-07-17T22:07:26.875Z,5.83
2018-07-17T22:09:56.144Z,7.03
2018-07-17T22:12:26.292Z,6.10
2018-07-17T22:14:56.392Z,5.67
2018-07-17T22:17:26.962Z,5.25
2018-07-17T22:19:58.744Z,5.80
2018-07-17T22:22:28.209Z,5.22
2018-07-17T22:24:57.107Z,6.10
2018-07-17T22:27:29.065Z,6.50
2018-07-17T22:29:58.552Z,5.25
2018-07-17T22:32:32.107Z,6.85
2018-07-17T22:35:01.816Z,6.70
2018-07-17T22:37:31.432Z,6.72
2018-07-17T22:40:02.581Z,6.15
2018-07-17T22:42:32.078Z,8.75
2018-07-17T22:45:00.652Z,7.15
2018-07-17T22:47:34.583Z,7.45
2018-07-17T22:50:03.994Z,7.17
2018-07-17T22:52:32.591Z,8.23
2018-07-17T22:55:01.067Z,6.37
2018-07-17T22:57:30.750Z,6.70
2018-07-17T22:59:59.504Z,6.10
2018-07-17T23:02:28.411Z,6.65
2018-07-17T23:04:57.558Z,6.33
2018-07-17T23:07:26.227Z,7.37
2018-07-17T23:09:55.462Z,7.12
2018-07-17T23:12:26.628Z,7.08
2018-07-17T23:14:55.635Z,6.15
2018-07-17T23:17:24.828Z,6.05
2018-07-17T23:19:54.564Z,6.55
2018-07-17T23:22:32.072Z,6.35
2018-07-17T23:25:00.123Z,6.45
2018-07-17T23:27:28.232Z,6.30
2018-07-17T23:29:56.299Z,6.08
2018-07-17T23:32:25.547Z,6.33
2018-07-17T23:34:55.857Z,5.72
2018-07-17T23:37:23.925Z,5.55
2018-07-17T23:39:51.973Z,6.05
2018-07-17T23:42:26.931Z,5.70
2018-07-17T23:44:55.041Z,5.67
2018-07-17T23:47:25.073Z,9.33
2018-07-17T23:49:54.078Z,8.25
2018-07-17T23:52:22.128Z,6.00
2018-07-17T23:54:50.180Z,5.60
2018-07-17T23:57:19.626Z,4.72
2018-07-17T23:59:47.699Z,5.70
